Time;durP1;ratioP1;P1;durP2;ratioP2;P2;SDS_P1;SDS_P2;PMS_P1;PMS_P2;Temp;Humidity;BMP_temperature;BMP_pressure;BME280_temperature;BME280_humidity;BME280_pressure;Samples;Min_cycle;Max_cycle;Signal;HPM_P1;HPM_P2
2021/05/15 00:02:31;;;;;;;16.82;13.53;;;;;;;8.87;70.90;99542.05;2158755;82;27695;-80
2021/05/15 00:05:33;;;;;;;18.55;12.25;;;;;;;8.81;70.84;99543.25;2158758;82;29039;-80
2021/05/15 00:08:35;;;;;;;16.93;11.83;;;;;;;8.74;70.87;99542.72;2157588;82;31081;-75
2021/05/15 00:11:37;;;;;;;15.05;11.70;;;;;;;8.69;70.89;99546.11;2155885;82;33335;-70
2021/05/15 00:14:39;;;;;;;20.68;11.30;;;;;;;8.65;70.97;99545.42;2162250;82;30626;-64
2021/05/15 00:17:41;;;;;;;14.47;11.15;;;;;;;8.63;71.11;99542.45;2162163;82;27637;-62
2021/05/15 00:20:43;;;;;;;19.62;11.50;;;;;;;8.60;71.13;99543.95;2089784;85;28075;-59
2021/05/15 00:23:45;;;;;;;17.12;11.45;;;;;;;8.56;71.14;99539.71;2125777;83;32132;-58
2021/05/15 00:26:46;;;;;;;15.23;10.60;;;;;;;8.52;71.10;99536.35;2090209;85;33336;-64
2021/05/15 00:29:48;;;;;;;19.42;10.50;;;;;;;8.46;71.08;99540.19;2160708;82;29833;-77
2021/05/15 00:32:50;;;;;;;20.05;11.25;;;;;;;8.42;71.14;99544.44;2173335;80;27621;-67
2021/05/15 00:35:52;;;;;;;15.03;9.60;;;;;;;8.36;71.27;99545.14;2198716;80;28636;-59
2021/05/15 00:38:54;;;;;;;17.20;9.58;;;;;;;8.32;71.29;99538.72;2162947;82;30909;-59
2021/05/15 00:41:55;;;;;;;14.78;8.75;;;;;;;8.28;71.34;99542.00;2198631;80;33305;-58
2021/05/15 00:44:57;;;;;;;14.47;9.38;;;;;;;8.24;71.34;99547.12;2162723;82;29346;-59
2021/05/15 00:47:59;;;;;;;14.30;9.90;;;;;;;8.21;71.33;99549.95;2160673;82;27579;-58
2021/05/15 00:51:02;;;;;;;15.10;10.50;;;;;;;8.17;71.42;99545.71;2160557;82;28518;-59
2021/05/15 00:54:05;;;;;;;14.80;9.73;;;;;;;8.14;71.38;99557.87;2198393;80;32109;-58
2021/05/15 00:57:08;;;;;;;16.52;8.90;;;;;;;8.11;71.45;99556.23;2198478;80;33200;-61
2021/05/15 01:00:13;;;;;;;14.25;10.28;;;;;;;8.04;71.54;99555.69;2198892;80;29699;-67
2021/05/15 01:03:15;;;;;;;15.20;9.78;;;;;;;7.99;71.62;99557.72;2198649;80;27640;-60
2021/05/15 01:06:17;;;;;;;14.85;9.23;;;;;;;7.95;71.67;99561.95;2198412;80;29763;-61
2021/05/15 01:09:20;;;;;;;17.07;9.20;;;;;;;7.90;71.74;99551.53;2198293;80;31650;-64
2021/05/15 01:12:21;;;;;;;12.33;8.93;;;;;;;7.87;71.69;99555.68;2196571;80;33889;-61
2021/05/15 01:15:27;;;;;;;13.60;9.60;;;;;;;7.85;71.69;99557.11;2193909;81;29361;-60
2021/05/15 01:18:28;;;;;;;15.13;9.65;;;;;;;7.84;71.74;99554.50;2193576;81;27643;-60
2021/05/15 01:21:31;;;;;;;13.08;9.73;;;;;;;7.81;71.75;99558.64;2194018;81;29830;-59
2021/05/15 01:27:59;;;;;;;15.03;9.23;;;;;;;7.80;71.82;99562.25;2088077;85;34143;-59
2021/05/15 01:31:01;;;;;;;12.43;7.70;;;;;;;7.78;71.69;99561.49;2090258;85;30457;-59
2021/05/15 01:34:04;;;;;;;14.78;9.80;;;;;;;7.74;71.73;99558.97;2090492;85;27613;-59
2021/05/15 01:37:06;;;;;;;12.70;9.28;;;;;;;7.69;71.76;99566.33;2067580;85;28720;-59
2021/05/15 01:40:10;;;;;;;15.88;8.73;;;;;;;7.65;71.72;99565.23;2055132;86;31234;-59
2021/05/15 01:43:22;;;;;;;13.13;9.83;;;;;;;7.62;71.75;99569.38;2054756;86;33706;-58
2021/05/15 01:46:24;;;;;;;17.23;10.70;;;;;;;7.58;71.87;99568.19;2065019;85;30080;-59
2021/05/15 01:49:26;;;;;;;15.23;10.40;;;;;;;7.56;71.89;99576.72;2089095;85;27992;-59
2021/05/15 01:52:27;;;;;;;19.25;11.55;;;;;;;7.56;71.96;99575.88;2090280;85;28696;-58
2021/05/15 01:55:31;;;;;;;16.85;10.90;;;;;;;7.54;71.92;99575.93;2090097;85;31062;-69
2021/05/15 01:58:33;;;;;;;17.20;12.23;;;;;;;7.52;72.04;99577.84;2055312;85;33866;-62
2021/05/15 02:01:36;;;;;;;18.45;10.68;;;;;;;7.51;72.04;99583.22;2063231;85;30435;-59
2021/05/15 02:04:37;;;;;;;15.50;10.90;;;;;;;7.47;72.09;99581.18;2104219;83;28036;-59
2021/05/15 02:07:39;;;;;;;14.68;10.48;;;;;;;7.42;72.14;99578.75;2124024;83;29798;-59
2021/05/15 02:10:41;;;;;;;14.58;10.03;;;;;;;7.40;72.20;99577.95;2124095;83;32241;-58
2021/05/15 02:13:48;;;;;;;14.33;10.20;;;;;;;7.36;72.32;99580.36;2090727;83;34045;-63
2021/05/15 02:16:50;;;;;;;14.28;10.88;;;;;;;7.36;72.29;99584.36;2088296;85;30088;-59
2021/05/15 02:19:52;;;;;;;16.23;11.28;;;;;;;7.35;72.35;99587.96;2088372;85;27668;-60
2021/05/15 02:22:54;;;;;;;14.00;10.85;;;;;;;7.34;72.30;99577.39;2088381;85;29401;-59
2021/05/15 02:25:56;;;;;;;14.93;10.38;;;;;;;7.33;72.28;99580.50;2095416;82;31584;-59
2021/05/15 02:28:58;;;;;;;16.32;11.22;;;;;;;7.32;72.29;99579.26;2159426;82;33402;-59
2021/05/15 02:31:59;;;;;;;16.15;10.93;;;;;;;7.28;72.22;99575.41;2160538;82;30400;-59
2021/05/15 02:35:02;;;;;;;18.30;9.65;;;;;;;7.24;72.16;99579.63;2160550;82;27638;-59
2021/05/15 02:38:05;;;;;;;12.88;9.70;;;;;;;7.21;72.15;99573.11;2152083;82;28744;-60
2021/05/15 02:41:07;;;;;;;12.82;9.55;;;;;;;7.13;72.19;99569.47;2124746;83;30994;-58
2021/05/15 02:44:10;;;;;;;10.65;8.40;;;;;;;7.07;72.13;99575.96;2126242;83;32200;-59
2021/05/15 02:47:11;;;;;;;12.75;8.98;;;;;;;7.05;72.21;99570.29;2126215;83;30074;-64
2021/05/15 02:50:15;;;;;;;13.15;9.10;;;;;;;7.04;72.26;99570.77;2126993;82;27574;-73
2021/05/15 02:53:19;;;;;;;13.30;9.60;;;;;;;7.03;72.22;99567.70;2092381;83;29152;-70
2021/05/15 02:56:21;;;;;;;12.13;10.13;;;;;;;7.04;72.33;99569.89;2055717;86;31421;-59
2021/05/15 02:59:22;;;;;;;13.55;9.40;;;;;;;7.04;72.36;99566.78;2129181;82;34200;-66
2021/05/15 03:02:25;;;;;;;17.50;10.00;;;;;;;7.04;72.31;99570.77;2099411;82;29325;-59
2021/05/15 03:05:29;;;;;;;16.80;9.98;;;;;;;7.02;72.25;99572.64;2090117;85;28227;-58
2021/05/15 03:08:31;;;;;;;12.58;9.20;;;;;;;7.00;72.23;99565.19;2090909;85;28303;-62
2021/05/15 03:11:32;;;;;;;13.80;9.15;;;;;;;6.98;72.28;99571.92;2090847;85;31334;-60
2021/05/15 03:14:34;;;;;;;15.25;9.68;;;;;;;6.96;72.28;99572.46;2123444;82;34204;-59
2021/05/15 03:17:35;;;;;;;12.78;8.90;;;;;;;6.97;72.31;99580.84;2087998;85;29637;-60
2021/05/15 03:20:37;;;;;;;17.60;9.50;;;;;;;6.97;72.31;99579.52;2126177;83;27566;-59
2021/05/15 03:23:39;;;;;;;14.43;9.50;;;;;;;7.02;72.33;99588.61;2126028;83;28999;-73
2021/05/15 03:26:41;;;;;;;15.90;9.28;;;;;;;7.05;72.35;99584.94;2124856;82;31802;-65
2021/05/15 03:29:43;;;;;;;16.15;10.98;;;;;;;7.09;72.38;99583.86;2123087;82;34092;-59
2021/05/15 03:32:45;;;;;;;18.00;10.88;;;;;;;7.13;72.38;99584.13;2125638;83;29529;-59
2021/05/15 03:35:47;;;;;;;18.77;10.98;;;;;;;7.17;72.40;99591.49;2136523;82;27646;-62
2021/05/15 03:38:49;;;;;;;19.07;11.83;;;;;;;7.19;72.45;99589.17;2160337;82;28608;-64
2021/05/15 03:41:51;;;;;;;20.17;12.05;;;;;;;7.22;72.44;99591.67;2160590;82;32027;-59
2021/05/15 03:44:53;;;;;;;15.80;10.72;;;;;;;7.27;72.48;99586.15;2158851;82;34252;-60
2021/05/15 03:47:54;;;;;;;21.60;11.28;;;;;;;7.32;72.46;99593.43;2120221;83;29621;-59
2021/05/15 03:50:56;;;;;;;17.17;10.75;;;;;;;7.38;72.54;99582.49;2120262;83;27568;-59
2021/05/15 03:53:58;;;;;;;16.32;11.10;;;;;;;7.44;72.52;99590.66;2120188;83;28674;-60
2021/05/15 03:57:00;;;;;;;18.07;11.05;;;;;;;7.50;72.55;99587.70;2120000;83;31844;-59
2021/05/15 04:00:02;;;;;;;19.35;12.25;;;;;;;7.57;72.59;99585.12;2134833;82;33359;-59
2021/05/15 04:03:05;;;;;;;18.05;12.07;;;;;;;7.66;72.58;99594.47;2130181;82;29315;-59
2021/05/15 04:06:07;;;;;;;23.57;12.85;;;;;;;7.75;72.66;99595.36;2119950;83;28163;-59
2021/05/15 04:09:09;;;;;;;21.07;13.90;;;;;;;7.89;72.69;99595.14;2122297;82;29252;-65
2021/05/15 04:12:14;;;;;;;21.55;14.75;;;;;;;8.00;72.72;99594.61;2119918;83;31335;-60
2021/05/15 04:18:36;;;;;;;24.05;17.52;;;;;;;8.19;72.95;99597.19;2129935;82;29470;-60
2021/05/15 04:21:39;;;;;;;25.05;15.98;;;;;;;8.35;73.05;99603.95;2160592;82;28181;-59
2021/05/15 04:24:41;;;;;;;26.20;16.55;;;;;;;8.48;73.07;99603.73;2159928;82;28926;-60
2021/05/15 04:27:43;;;;;;;19.77;15.40;;;;;;;8.67;73.13;99602.77;2160115;82;32102;-64
2021/05/15 04:30:45;;;;;;;20.62;15.75;;;;;;;8.85;73.20;99600.05;2152216;82;34242;-60
2021/05/15 04:33:47;;;;;;;22.52;15.78;;;;;;;9.05;73.24;99595.80;2159683;82;30480;-59
2021/05/15 04:36:49;;;;;;;21.90;15.93;;;;;;;9.26;73.23;99599.13;2160504;82;27639;-59
2021/05/15 04:39:51;;;;;;;22.58;14.73;;;;;;;9.52;73.20;99607.48;2142903;82;29912;-60
2021/05/15 04:42:53;;;;;;;19.55;13.55;;;;;;;10.00;73.65;99603.42;2126029;83;31488;-60
2021/05/15 04:45:56;;;;;;;18.20;13.58;;;;;;;10.93;73.95;99604.56;2120052;83;33963;-59
2021/05/15 04:48:57;;;;;;;17.75;13.08;;;;;;;11.99;73.74;99601.88;2120093;83;30302;-71
2021/05/15 04:51:59;;;;;;;20.25;14.25;;;;;;;13.11;73.16;99595.06;2120125;83;27584;-68
2021/05/15 04:55:01;;;;;;;20.02;12.55;;;;;;;14.21;72.22;99590.23;2155288;82;29827;-68
2021/05/15 04:58:02;;;;;;;18.32;13.28;;;;;;;15.28;71.04;99592.72;2158094;82;31515;-61
2021/05/15 05:01:04;;;;;;;15.45;11.48;;;;;;;16.29;69.77;99586.68;2160378;82;34333;-60
2021/05/15 05:04:08;;;;;;;23.87;12.55;;;;;;;17.22;68.58;99586.78;2160638;82;30721;-60
2021/05/15 05:07:10;;;;;;;19.60;12.55;;;;;;;18.10;66.92;99596.09;2160415;82;27566;-63
2021/05/15 05:10:12;;;;;;;15.70;11.22;;;;;;;18.87;65.73;99596.98;2160520;82;29749;-59
2021/05/15 05:13:13;;;;;;;16.20;11.73;;;;;;;19.37;64.24;99566.44;2160455;82;31716;-59
2021/05/15 05:16:15;;;;;;;14.23;9.85;;;;;;;20.10;62.83;99602.77;2145117;82;32986;-60
2021/05/15 05:19:17;;;;;;;14.78;10.98;;;;;;;20.73;61.93;99601.74;2160499;82;29699;-59
2021/05/15 05:22:19;;;;;;;14.13;10.05;;;;;;;21.33;60.73;99602.81;2129247;82;28120;-60
2021/05/15 05:25:21;;;;;;;16.20;11.63;;;;;;;21.88;59.65;99601.98;2135534;82;29233;-60
2021/05/15 05:28:33;;;;;;;13.08;10.43;;;;;;;22.39;58.69;99607.83;2160571;82;31404;-65
2021/05/15 05:31:26;;;;;;;14.98;10.48;;;;;;;22.81;57.86;99602.73;2158857;82;33347;-61
2021/05/15 05:34:30;;;;;;;13.90;9.60;;;;;;;23.20;56.52;99606.06;2158763;82;29338;-71
2021/05/15 05:37:32;;;;;;;13.88;9.88;;;;;;;23.50;55.61;99602.18;2101963;83;27591;-71
2021/05/15 05:40:34;;;;;;;17.55;9.68;;;;;;;23.81;55.04;99605.97;2089335;85;29412;-72
2021/05/15 05:43:35;;;;;;;13.35;8.68;;;;;;;24.13;54.08;99604.08;2089683;85;30985;-70
2021/05/15 05:46:37;;;;;;;11.45;8.53;;;;;;;24.40;52.78;99602.68;2090052;85;33039;-61
2021/05/15 05:49:39;;;;;;;8.60;7.75;;;;;;;24.68;52.13;99608.93;2090223;85;29309;-59
2021/05/15 05:52:43;;;;;;;11.57;7.73;;;;;;;24.94;51.11;99603.59;2162983;82;27550;-59
2021/05/15 05:55:44;;;;;;;9.93;8.55;;;;;;;25.18;50.21;99602.97;2141788;82;29023;-59
2021/05/15 05:58:46;;;;;;;11.55;8.08;;;;;;;25.44;49.42;99597.57;2125727;83;30886;-60
2021/05/15 06:01:49;;;;;;;9.73;7.37;;;;;;;25.58;48.64;99596.69;2125251;83;32915;-60
2021/05/15 06:04:51;;;;;;;11.08;8.78;;;;;;;25.89;48.43;99597.48;2125754;82;29723;-61
2021/05/15 06:07:53;;;;;;;9.35;8.45;;;;;;;26.21;47.25;99598.06;2123450;82;27596;-60
2021/05/15 06:10:55;;;;;;;11.18;9.00;;;;;;;26.57;46.95;99599.00;2124947;82;28594;-73
2021/05/15 06:13:56;;;;;;;15.55;8.00;;;;;;;26.83;45.65;99595.11;2120040;82;31056;-70
2021/05/15 06:16:58;;;;;;;9.15;8.13;;;;;;;27.03;45.21;99592.19;2119959;84;32927;-60
2021/05/15 06:20:00;;;;;;;10.13;7.15;;;;;;;27.17;43.76;99591.73;2120025;84;29312;-60
2021/05/15 06:23:02;;;;;;;13.10;6.87;;;;;;;27.33;43.64;99591.94;2120258;82;27617;-64
2021/05/15 06:26:13;;;;;;;10.85;7.53;;;;;;;27.65;43.70;99595.91;2096758;83;29403;-70
2021/05/15 06:29:08;;;;;;;10.15;8.00;;;;;;;28.14;43.25;99599.98;2123468;82;31613;-62
2021/05/15 06:32:10;;;;;;;13.53;7.55;;;;;;;28.42;41.80;99599.82;2126993;82;33375;-62
2021/05/15 06:35:14;;;;;;;9.75;7.10;;;;;;;28.55;41.48;99600.88;2126480;83;29697;-60
2021/05/15 06:38:18;;;;;;;8.43;6.22;;;;;;;28.77;41.09;99605.70;2126543;83;27658;-60
2021/05/15 06:41:19;;;;;;;7.40;6.20;;;;;;;28.77;39.60;99602.94;2126409;83;33678;-63
2021/05/15 06:44:21;;;;;;;7.33;5.62;;;;;;;28.85;39.55;99599.95;2126396;83;32137;-65
2021/05/15 06:47:23;;;;;;;6.58;5.95;;;;;;;29.02;38.97;99597.61;2126591;82;34241;-63
2021/05/15 06:50:25;;;;;;;6.92;5.40;;;;;;;29.33;39.07;99604.83;2126908;83;29705;-70
2021/05/15 06:53:26;;;;;;;7.35;5.15;;;;;;;29.52;38.37;99605.88;2152975;82;27586;-67
2021/05/15 06:56:28;;;;;;;7.12;6.30;;;;;;;29.80;37.81;99604.69;2161306;82;28589;-69
2021/05/15 06:59:29;;;;;;;7.75;5.50;;;;;;;29.94;37.00;99598.58;2162933;82;31714;-74
2021/05/15 07:02:31;;;;;;;6.30;5.55;;;;;;;29.97;36.02;99597.62;2163380;82;34228;-63
2021/05/15 07:05:34;;;;;;;10.32;5.62;;;;;;;29.99;35.61;99601.53;2163467;82;30052;-63
2021/05/15 07:08:35;;;;;;;5.42;4.87;;;;;;;30.06;35.93;99602.34;2163261;82;27687;-61
2021/05/15 07:11:37;;;;;;;7.97;6.12;;;;;;;30.24;35.85;99596.60;2163406;82;29932;-61
2021/05/15 07:14:39;;;;;;;9.05;4.90;;;;;;;30.29;34.13;99596.23;2163458;82;31012;-64
2021/05/15 07:17:41;;;;;;;11.33;5.00;;;;;;;30.39;35.11;99592.12;2163037;82;33338;-68
2021/05/15 07:20:45;;;;;;;10.90;4.87;;;;;;;30.64;34.89;99596.30;2091178;85;27731;-69
2021/05/15 07:23:46;;;;;;;5.90;4.55;;;;;;;30.87;34.57;99594.83;2091150;85;27676;-66
2021/05/15 07:26:48;;;;;;;5.22;4.37;;;;;;;31.03;33.76;99593.38;2102258;82;28767;-61
2021/05/15 07:29:53;;;;;;;5.65;4.37;;;;;;;31.04;32.52;99597.32;2126155;83;32097;-61
2021/05/15 07:32:57;;;;;;;4.92;4.37;;;;;;;31.10;32.70;99598.32;2126106;83;32955;-61
2021/05/15 07:35:59;;;;;;;5.80;4.62;;;;;;;31.22;33.00;99592.91;2125484;82;29192;-60
2021/05/15 07:39:00;;;;;;;4.87;4.37;;;;;;;31.22;32.06;99589.59;2159552;82;27626;-63
2021/05/15 07:42:04;;;;;;;9.08;5.47;;;;;;;31.30;32.22;99583.45;2160327;82;28364;-62
2021/05/15 07:45:07;;;;;;;5.17;4.37;;;;;;;31.34;31.46;99582.75;2131516;82;31015;-62
2021/05/15 07:48:09;;;;;;;4.67;4.28;;;;;;;31.43;32.17;99580.52;2090665;83;33716;-60
2021/05/15 07:51:22;;;;;;;5.37;3.87;;;;;;;31.58;31.60;99577.89;2090646;85;29384;-61
2021/05/15 07:54:25;;;;;;;6.60;5.75;;;;;;;31.61;30.49;99572.72;2124745;82;28210;-62
2021/05/15 07:57:26;;;;;;;5.50;3.90;;;;;;;31.31;30.39;99572.14;2107282;83;28367;-60
2021/05/15 08:00:28;;;;;;;8.18;3.12;;;;;;;31.29;30.50;99571.52;2090812;83;30771;-59
2021/05/15 08:03:30;;;;;;;5.47;3.27;;;;;;;31.31;30.67;99568.55;2090442;85;34087;-60
2021/05/15 08:06:31;;;;;;;4.92;3.75;;;;;;;31.37;29.36;99568.45;2119531;83;29876;-79
2021/05/15 08:09:33;;;;;;;6.40;3.40;;;;;;;31.07;29.32;99569.72;2115796;83;27654;-61
2021/05/15 08:12:36;;;;;;;7.17;3.58;;;;;;;30.87;29.27;99566.63;2082515;83;28598;-60
2021/05/15 08:15:39;;;;;;;10.23;4.00;;;;;;;30.66;29.37;99572.05;2076748;85;30979;-61
2021/05/15 08:18:44;;;;;;;4.58;3.83;;;;;;;30.45;29.42;99574.64;2134953;82;34125;-61
2021/05/15 08:21:46;;;;;;;5.53;3.00;;;;;;;30.39;29.24;99579.16;2125540;82;29808;-62
2021/05/15 08:24:48;;;;;;;5.12;2.90;;;;;;;30.42;29.73;99577.86;2126329;83;27674;-63
2021/05/15 08:27:57;;;;;;;4.70;3.12;;;;;;;30.56;28.87;99577.25;2126374;83;28757;-63
2021/05/15 08:30:53;;;;;;;5.30;3.30;;;;;;;30.61;29.80;99571.90;2119308;83;30992;-63
2021/05/15 08:33:55;;;;;;;6.33;3.62;;;;;;;30.61;29.59;99576.05;2119892;82;35106;-60
2021/05/15 08:36:57;;;;;;;4.62;2.75;;;;;;;30.63;28.17;99575.25;2119981;83;29130;-60
2021/05/15 08:39:59;;;;;;;5.25;3.15;;;;;;;30.46;28.68;99571.64;2119958;83;27602;-60
2021/05/15 08:43:00;;;;;;;4.47;2.70;;;;;;;30.39;29.39;99573.63;2120378;83;29729;-59
2021/05/15 08:46:03;;;;;;;7.08;5.08;;;;;;;30.49;29.53;99576.41;2119879;83;31940;-61
2021/05/15 08:49:05;;;;;;;8.98;7.22;;;;;;;30.52;28.77;99574.07;2119241;83;34189;-61
2021/05/15 08:52:09;;;;;;;3.02;2.70;;;;;;;30.18;27.89;99569.86;2120070;83;29373;-60
2021/05/15 08:55:16;;;;;;;3.40;3.10;;;;;;;29.69;28.49;99571.72;2120717;83;27721;-62
2021/05/15 08:58:20;;;;;;;2.77;2.58;;;;;;;29.44;29.02;99579.89;2091107;83;28219;-59
2021/05/15 09:01:21;;;;;;;;;;;;;;;29.28;28.92;99579.83;2085812;85;31410;-60
2021/05/15 09:04:24;;;;;;;3.45;3.15;;;;;;;29.15;29.42;99582.92;2084741;85;33454;-61
2021/05/15 09:07:26;;;;;;;6.72;2.62;;;;;;;29.02;29.51;99580.20;2084546;85;30442;-60
2021/05/15 09:10:31;;;;;;;3.15;2.83;;;;;;;28.90;29.71;99580.86;2084832;85;27662;-61
2021/05/15 09:13:33;;;;;;;3.25;2.77;;;;;;;28.71;29.41;99580.31;2104265;83;29341;-60
2021/05/15 09:16:40;;;;;;;2.47;2.10;;;;;;;28.54;29.07;99579.92;2088568;83;31367;-67
2021/05/15 09:19:47;;;;;;;3.62;2.10;;;;;;;27.97;29.33;99571.44;2087500;85;33701;-61
2021/05/15 09:22:49;;;;;;;2.25;2.02;;;;;;;27.59;29.91;99573.36;2088767;85;30516;-67
2021/05/15 09:26:07;;;;;;;2.90;2.12;;;;;;;27.32;30.08;99575.11;2089555;85;27799;-60
2021/05/15 09:29:09;;;;;;;7.22;2.10;;;;;;;27.13;30.33;99578.41;2094821;83;29384;-60
2021/05/15 09:32:12;;;;;;;3.08;2.15;;;;;;;27.19;30.75;99573.13;2099386;83;30784;-60
2021/05/15 09:35:25;;;;;;;4.22;2.45;;;;;;;27.27;30.33;99568.31;2126052;83;34056;-60
2021/05/15 09:38:26;;;;;;;3.02;2.35;;;;;;;27.01;29.60;99568.17;2125564;83;29352;-60
2021/05/15 09:41:35;;;;;;;2.92;2.62;;;;;;;26.64;29.76;99565.04;2125761;83;27632;-60
2021/05/15 09:44:40;;;;;;;6.70;6.08;;;;;;;26.23;30.44;99564.36;2125532;83;29249;-61
2021/05/15 09:47:51;;;;;;;3.87;2.83;;;;;;;26.21;31.23;99559.62;2125489;83;32380;-59
2021/05/15 09:50:52;;;;;;;3.12;2.12;;;;;;;26.21;30.81;99559.08;2124213;83;33176;-60
2021/05/15 09:53:54;;;;;;;3.15;2.35;;;;;;;25.92;30.88;99558.14;2123098;83;29501;-59
2021/05/15 09:57:08;;;;;;;3.77;2.00;;;;;;;25.64;31.46;99558.03;2123403;82;27563;-60
2021/05/15 10:00:13;;;;;;;2.70;2.33;;;;;;;25.59;31.85;99559.99;2125527;83;29173;-60
2021/05/15 10:03:24;;;;;;;2.17;2.08;;;;;;;25.50;31.50;99556.18;2139121;82;30980;-60
2021/05/15 10:06:26;;;;;;;2.98;2.30;;;;;;;25.39;31.74;99547.89;2122842;83;33689;-59
2021/05/15 10:09:34;;;;;;;2.92;2.30;;;;;;;25.31;32.17;99545.60;2125667;83;30651;-60
2021/05/15 10:12:36;;;;;;;2.62;2.42;;;;;;;25.44;33.08;99549.58;2125795;83;27572;-60
2021/05/15 10:15:38;;;;;;;5.92;2.30;;;;;;;25.53;32.40;99544.30;2125682;83;28611;-59
2021/05/15 10:18:40;;;;;;;4.78;3.70;;;;;;;25.51;31.84;99540.89;2125257;83;32103;-60
2021/05/15 10:21:43;;;;;;;4.30;3.22;;;;;;;25.51;31.79;99545.00;2130672;82;32703;-67
2021/05/15 10:24:48;;;;;;;2.75;2.12;;;;;;;25.35;31.33;99535.09;2163347;82;29320;-66
2021/05/15 10:27:50;;;;;;;2.35;2.15;;;;;;;25.31;32.86;99540.62;2161221;82;27662;-67
2021/05/15 10:51:06;;;;;;;2.10;1.92;;;;;;;24.82;33.24;99516.05;2320069;75;27558;-66
2021/05/15 10:54:30;;;;;;;6.97;1.90;;;;;;;24.75;33.68;99509.62;2223580;80;27530;-67
2021/05/15 10:57:33;;;;;;;2.17;1.80;;;;;;;24.63;32.47;99504.59;2008397;87;28666;-66
2021/05/15 11:00:35;;;;;;;1.27;1.17;;;;;;;24.41;33.22;99504.45;2028605;87;31014;-59
2021/05/15 11:03:37;;;;;;;1.40;1.20;;;;;;;24.38;32.71;99495.77;2011748;87;35001;-57
2021/05/15 11:06:39;;;;;;;3.33;1.70;;;;;;;24.32;33.08;99490.53;2000437;87;28164;-57
2021/05/15 11:10:03;;;;;;;4.28;1.60;;;;;;;24.20;32.49;99497.46;1999223;88;27820;-56
2021/05/15 11:13:09;;;;;;;1.90;1.47;;;;;;;24.13;32.70;99479.56;2002804;88;28630;-58
2021/05/15 11:16:10;;;;;;;2.42;1.30;;;;;;;24.00;32.71;99474.71;2011876;87;32139;-69
2021/05/15 11:19:11;;;;;;;2.72;1.42;;;;;;;24.05;33.42;99476.39;1992433;88;32950;-71
2021/05/15 11:22:13;;;;;;;4.60;1.60;;;;;;;24.18;33.99;99466.69;1958364;88;29466;-71
2021/05/15 11:25:26;;;;;;;2.77;1.20;;;;;;;24.27;32.92;99466.42;2001410;88;27678;-72
2021/05/15 11:28:28;;;;;;;1.90;1.22;;;;;;;24.26;32.89;99456.52;2065516;84;30440;-60
2021/05/15 11:31:30;;;;;;;1.85;1.62;;;;;;;24.05;32.24;99455.86;2102355;84;31735;-58
2021/05/15 11:34:32;;;;;;;8.73;6.20;;;;;;;23.88;32.55;99456.51;2045007;86;34102;-59
2021/05/15 11:37:33;;;;;;;3.27;1.65;;;;;;;23.96;33.36;99450.98;2105463;84;29107;-59
2021/05/15 11:40:41;;;;;;;3.65;1.60;;;;;;;23.99;33.17;99448.42;2081472;84;27529;-59
2021/05/15 11:43:43;;;;;;;2.35;2.15;;;;;;;23.89;32.64;99452.74;2072678;85;28869;-59
2021/05/15 11:46:54;;;;;;;4.10;1.50;;;;;;;23.85;33.38;99455.50;2038924;86;32136;-65
2021/05/15 11:50:00;;;;;;;3.12;1.50;;;;;;;23.99;33.64;99447.05;2097881;84;32948;-64
2021/05/15 11:53:06;;;;;;;2.00;1.60;;;;;;;24.15;33.87;99446.56;2089918;84;28677;-66
2021/05/15 11:56:16;;;;;;;1.60;1.50;;;;;;;24.30;33.85;99449.30;2097499;84;27581;-58
2021/05/15 11:59:19;;;;;;;2.95;1.60;;;;;;;24.46;33.71;99449.12;2088771;84;28882;-57
2021/05/15 12:02:23;;;;;;;2.77;1.80;;;;;;;24.51;32.97;99441.70;2098631;84;30896;-57
2021/05/15 12:05:25;;;;;;;2.27;1.30;;;;;;;24.33;32.94;99442.09;2081509;85;33290;-57
2021/05/15 12:08:29;;;;;;;3.30;2.55;;;;;;;24.23;33.25;99431.41;2095845;84;29073;-58
2021/05/15 12:11:31;;;;;;;2.08;1.65;;;;;;;24.29;33.69;99432.05;2052852;84;27599;-57
2021/05/15 12:14:33;;;;;;;1.62;1.52;;;;;;;24.47;33.76;99432.20;2096894;84;29759;-57
2021/05/15 12:17:35;;;;;;;2.65;1.50;;;;;;;24.59;33.27;99432.05;2096752;84;31085;-57
2021/05/15 12:20:49;;;;;;;2.83;1.22;;;;;;;24.64;33.95;99422.75;2096868;84;33327;-57
2021/05/15 12:23:50;;;;;;;3.33;1.25;;;;;;;24.66;32.85;99415.70;2097076;84;28691;-58
2021/05/15 12:26:52;;;;;;;2.22;1.10;;;;;;;24.38;32.27;99421.32;2099231;84;27676;-57
2021/05/15 12:30:06;;;;;;;1.82;1.37;;;;;;;24.00;32.15;99420.52;2096468;84;28542;-57
2021/05/15 12:33:11;;;;;;;1.20;1.10;;;;;;;23.64;32.03;99410.54;2097013;84;31144;-57
2021/05/15 12:36:18;;;;;;;1.82;1.10;;;;;;;23.37;32.15;99420.14;2097125;84;32929;-57
2021/05/15 12:39:21;;;;;;;2.02;1.00;;;;;;;23.35;32.88;99414.87;2096171;84;28723;-58
2021/05/15 12:42:32;;;;;;;1.42;0.98;;;;;;;23.49;33.25;99417.34;2096398;84;27612;-58
2021/05/15 12:45:37;;;;;;;2.05;0.95;;;;;;;23.65;33.27;99406.77;2095351;84;28694;-57
2021/05/15 12:48:40;;;;;;;0.75;0.60;;;;;;;23.83;32.24;99406.97;2097014;84;30999;-57
2021/05/15 12:51:48;;;;;;;1.13;0.93;;;;;;;23.83;32.53;99413.27;2097173;84;32985;-58
2021/05/15 12:54:50;;;;;;;1.35;1.15;;;;;;;23.89;32.53;99413.58;2096617;84;29158;-59
2021/05/15 12:57:57;;;;;;;1.55;0.80;;;;;;;23.89;31.71;99409.48;2073669;84;27699;-57
2021/05/15 13:01:03;;;;;;;1.20;1.00;;;;;;;23.87;32.04;99401.97;2099443;84;28643;-57
2021/05/15 13:04:05;;;;;;;1.20;1.07;;;;;;;23.91;32.26;99398.67;2101416;84;31139;-57
2021/05/15 13:07:07;;;;;;;3.75;1.80;;;;;;;24.01;32.53;99399.80;2096031;84;34086;-58
2021/05/15 13:10:11;;;;;;;1.05;1.02;;;;;;;24.12;32.67;99402.61;2097105;84;29130;-57
2021/05/15 13:13:13;;;;;;;1.35;1.25;;;;;;;24.10;32.85;99401.94;2097120;84;27661;-58
2021/05/15 13:16:15;;;;;;;5.45;1.20;;;;;;;24.07;33.16;99401.81;2096836;84;29597;-58
2021/05/15 13:19:19;;;;;;;2.77;1.42;;;;;;;23.98;33.04;99407.05;2100524;84;31061;-58
2021/05/15 13:22:21;;;;;;;1.17;0.80;;;;;;;23.90;33.46;99410.67;2096100;84;33752;-57
2021/05/15 13:25:23;;;;;;;4.00;1.95;;;;;;;23.67;33.35;99414.78;2094337;84;28627;-58
2021/05/15 13:28:25;;;;;;;1.52;1.37;;;;;;;23.48;33.77;99428.44;2096013;84;28232;-57
2021/05/15 13:31:27;;;;;;;4.65;1.20;;;;;;;23.21;34.55;99434.25;2096067;84;28845;-61
2021/05/15 13:34:29;;;;;;;5.97;1.72;;;;;;;22.94;35.32;99447.01;2096164;84;31428;-58
2021/05/15 13:37:30;;;;;;;2.98;1.27;;;;;;;22.63;35.80;99451.91;2079495;84;33317;-57
2021/05/15 13:40:33;;;;;;;2.92;1.15;;;;;;;22.24;36.38;99463.91;2096857;84;28621;-57
2021/05/15 13:43:34;;;;;;;3.55;1.20;;;;;;;21.92;37.70;99467.53;2095766;84;27688;-57
2021/05/15 13:46:36;;;;;;;1.42;1.27;;;;;;;21.62;38.69;99471.23;2094376;84;28653;-57
2021/05/15 13:49:38;;;;;;;3.83;1.22;;;;;;;21.33;39.75;99477.48;2090465;84;32180;-57
2021/05/15 13:52:40;;;;;;;3.25;2.08;;;;;;;21.00;40.70;99489.63;2096797;84;34058;-57
2021/05/15 13:55:42;;;;;;;2.10;1.90;;;;;;;20.77;41.90;99505.66;2094709;84;29083;-57
2021/05/15 13:58:45;;;;;;;2.17;1.98;;;;;;;20.54;42.13;99498.04;2086772;84;27606;-57
2021/05/15 14:01:47;;;;;;;3.02;1.70;;;;;;;20.23;42.47;99503.09;2086548;84;29378;-57
2021/05/15 14:04:49;;;;;;;3.90;1.90;;;;;;;19.99;43.48;99525.01;2095316;84;31730;-57
2021/05/15 14:07:51;;;;;;;6.42;4.45;;;;;;;19.77;45.20;99527.15;2096087;84;32997;-61
2021/05/15 14:10:53;;;;;;;3.92;2.33;;;;;;;19.55;45.39;99515.72;2096646;84;29316;-58
2021/05/15 14:13:55;;;;;;;3.50;1.82;;;;;;;19.39;46.49;99519.13;2093019;84;28129;-58
2021/05/15 14:16:57;;;;;;;4.03;1.32;;;;;;;19.19;46.82;99514.33;2070243;84;29773;-58
2021/05/15 14:20:00;;;;;;;3.55;1.10;;;;;;;19.01;47.31;99503.40;2060434;85;32115;-62
2021/05/15 14:23:03;;;;;;;2.60;0.93;;;;;;;18.74;47.31;99501.00;2068845;84;33375;-62
2021/05/15 14:26:05;;;;;;;1.00;0.95;;;;;;;18.51;48.09;99494.57;2086493;84;29032;-58
2021/05/15 14:29:07;;;;;;;1.72;1.60;;;;;;;18.29;48.04;99479.51;2094062;84;27623;-58
2021/05/15 14:32:09;;;;;;;1.17;1.00;;;;;;;18.16;48.43;99481.69;2096718;84;29831;-58
2021/05/15 14:35:12;;;;;;;1.12;1.10;;;;;;;18.07;49.07;99477.47;2069526;85;30889;-58
2021/05/15 14:38:14;;;;;;;2.75;1.30;;;;;;;18.10;49.27;99470.05;2096022;84;33195;-60
2021/05/15 14:41:16;;;;;;;1.30;0.90;;;;;;;18.11;49.29;99454.15;2088757;84;29525;-60
2021/05/15 14:44:18;;;;;;;2.37;1.00;;;;;;;18.37;49.36;99460.63;2093698;84;27660;-60
2021/05/15 14:47:20;;;;;;;1.62;1.00;;;;;;;18.51;49.28;99453.05;2076090;84;29678;-58